createdAt,value
2023-03-19T00:00:43.629Z,24
2023-03-19T00:01:50.573Z,25
2023-03-19T00:02:57.626Z,23
2023-03-19T00:04:04.323Z,25
2023-03-19T00:05:11.142Z,24
2023-03-19T00:06:17.996Z,25
2023-03-19T00:07:24.847Z,24
2023-03-19T00:08:31.920Z,25
2023-03-19T00:09:39.021Z,24
2023-03-19T00:10:45.941Z,24
2023-03-19T00:11:54.141Z,24
2023-03-19T00:13:02.168Z,24
2023-03-19T00:14:09.041Z,23
2023-03-19T00:15:17.617Z,22
2023-03-19T00:16:25.579Z,24
2023-03-19T00:17:34.520Z,23
2023-03-19T00:18:41.326Z,23
2023-03-19T00:19:49.654Z,24
2023-03-19T00:20:56.776Z,26
2023-03-19T00:22:03.856Z,30
2023-03-19T00:23:10.734Z,30
2023-03-19T00:24:17.635Z,31
2023-03-19T00:25:24.472Z,30
2023-03-19T00:26:32.056Z,30
2023-03-19T00:27:38.886Z,31
2023-03-19T00:28:46.509Z,29
2023-03-19T00:29:53.417Z,31
2023-03-19T00:31:00.335Z,30
2023-03-19T00:32:13.224Z,29
2023-03-19T00:33:20.086Z,29
2023-03-19T00:34:26.947Z,29
2023-03-19T00:35:34.093Z,29
2023-03-19T00:36:42.348Z,28
2023-03-19T00:37:49.284Z,27
2023-03-19T00:38:59.103Z,27
2023-03-19T00:40:06.082Z,27
2023-03-19T00:41:13.308Z,28
2023-03-19T00:42:20.146Z,28
2023-03-19T00:43:27.478Z,27
2023-03-19T00:44:36.002Z,27
2023-03-19T00:45:42.998Z,27
2023-03-19T00:46:49.944Z,28
2023-03-19T00:47:56.837Z,27
2023-03-19T00:49:03.686Z,26
2023-03-19T00:50:10.526Z,27
2023-03-19T00:51:17.328Z,27
2023-03-19T00:52:24.192Z,27
2023-03-19T00:53:31.117Z,29
2023-03-19T00:54:43.596Z,29
2023-03-19T00:55:50.535Z,29
2023-03-19T00:56:57.350Z,27
2023-03-19T00:58:04.168Z,27
2023-03-19T00:59:11.055Z,25
2023-03-19T01:00:17.889Z,27
2023-03-19T01:01:24.892Z,25
2023-03-19T01:02:31.805Z,24
2023-03-19T01:03:38.676Z,25
2023-03-19T01:04:45.668Z,23
2023-03-19T01:05:52.539Z,24
2023-03-19T01:07:02.537Z,24
2023-03-19T01:08:09.494Z,22
2023-03-19T01:09:16.470Z,23
2023-03-19T01:10:23.365Z,22
2023-03-19T01:11:30.192Z,23
2023-03-19T01:12:37.058Z,20
2023-03-19T01:13:46.045Z,20
2023-03-19T01:14:52.979Z,21
2023-03-19T01:16:00.016Z,22
2023-03-19T01:17:06.860Z,21
2023-03-19T01:18:13.785Z,20
2023-03-19T01:19:20.575Z,21
2023-03-19T01:20:27.461Z,20
2023-03-19T01:21:34.421Z,21
2023-03-19T01:22:41.412Z,19
2023-03-19T01:23:48.344Z,20
2023-03-19T01:24:55.154Z,19
2023-03-19T01:26:01.957Z,19
2023-03-19T01:27:09.116Z,19
2023-03-19T01:28:15.957Z,19
2023-03-19T01:29:22.765Z,20
2023-03-19T01:30:29.659Z,19
2023-03-19T01:31:36.518Z,19
2023-03-19T01:32:43.361Z,18
2023-03-19T01:33:50.217Z,19
2023-03-19T01:34:56.972Z,19
2023-03-19T01:36:03.778Z,20
2023-03-19T01:37:10.859Z,20
2023-03-19T01:38:17.652Z,19
2023-03-19T01:39:24.538Z,20
2023-03-19T01:40:31.384Z,21
2023-03-19T01:41:38.115Z,21
2023-03-19T01:42:44.919Z,22
2023-03-19T01:43:56.811Z,21
2023-03-19T01:45:03.606Z,23
2023-03-19T01:46:10.536Z,22
2023-03-19T01:47:24.907Z,20
2023-03-19T01:48:31.864Z,21
2023-03-19T01:49:43.860Z,21
2023-03-19T01:50:54.843Z,19
2023-03-19T01:52:01.921Z,19
2023-03-19T01:53:10.749Z,19
2023-03-19T01:54:15.855Z,18
2023-03-19T01:55:22.842Z,18
2023-03-19T01:56:29.789Z,19
2023-03-19T01:57:36.645Z,18
2023-03-19T01:58:43.491Z,17
2023-03-19T01:59:50.342Z,18
2023-03-19T02:00:57.392Z,17
2023-03-19T02:02:04.216Z,17
2023-03-19T02:03:17.114Z,15
2023-03-19T02:04:24.023Z,16
2023-03-19T02:05:30.809Z,17
2023-03-19T02:06:37.795Z,15
2023-03-19T02:07:44.630Z,16
2023-03-19T02:08:51.715Z,15
2023-03-19T02:09:58.725Z,15
2023-03-19T02:11:05.591Z,16
2023-03-19T02:12:12.361Z,16
2023-03-19T02:13:19.191Z,16
2023-03-19T02:14:25.993Z,16
2023-03-19T02:15:32.923Z,16
2023-03-19T02:16:39.774Z,15
2023-03-19T02:17:46.589Z,16
2023-03-19T02:18:53.434Z,16
2023-03-19T02:20:00.236Z,16
2023-03-19T02:21:09.982Z,15
2023-03-19T02:22:16.903Z,14
2023-03-19T02:23:24.015Z,14
2023-03-19T02:24:41.060Z,14
2023-03-19T02:25:48.002Z,14
2023-03-19T02:26:59.964Z,14
2023-03-19T02:28:06.898Z,14
2023-03-19T02:29:16.336Z,12
2023-03-19T02:30:23.267Z,13
2023-03-19T02:31:30.249Z,14
2023-03-19T02:32:37.152Z,13
2023-03-19T02:33:44.056Z,13
2023-03-19T02:34:59.342Z,15
2023-03-19T02:36:06.336Z,14
2023-03-19T02:37:18.182Z,15
2023-03-19T02:38:27.851Z,15
2023-03-19T02:39:34.729Z,15
2023-03-19T02:40:41.472Z,15
2023-03-19T02:41:48.275Z,14
2023-03-19T02:42:55.233Z,14
2023-03-19T02:44:02.203Z,14
2023-03-19T02:45:09.134Z,14
2023-03-19T02:46:17.021Z,14
2023-03-19T02:47:23.936Z,14
2023-03-19T02:48:30.730Z,13
2023-03-19T02:49:37.628Z,13
2023-03-19T02:50:44.577Z,12
2023-03-19T02:51:51.535Z,12
2023-03-19T02:52:58.309Z,12
2023-03-19T02:54:05.200Z,11
2023-03-19T02:55:12.094Z,12
2023-03-19T02:56:18.964Z,11
2023-03-19T02:57:25.979Z,12
2023-03-19T02:58:32.841Z,11
2023-03-19T02:59:39.650Z,12
2023-03-19T03:00:46.641Z,11
2023-03-19T03:01:53.504Z,11
2023-03-19T03:03:00.325Z,12
2023-03-19T03:04:07.109Z,12
2023-03-19T03:05:15.406Z,11
2023-03-19T03:06:22.365Z,11
2023-03-19T03:07:38.466Z,11
2023-03-19T03:08:45.458Z,12
2023-03-19T03:09:52.438Z,11
2023-03-19T03:10:59.319Z,11
2023-03-19T03:12:06.192Z,12
2023-03-19T03:13:13.061Z,11
2023-03-19T03:14:19.900Z,11
2023-03-19T03:15:26.837Z,11
2023-03-19T03:16:33.751Z,12
2023-03-19T03:17:40.740Z,11
2023-03-19T03:18:47.534Z,10
2023-03-19T03:19:54.378Z,11
2023-03-19T03:21:01.190Z,11
2023-03-19T03:22:08.138Z,11
2023-03-19T03:23:14.971Z,11
2023-03-19T03:24:21.867Z,11
2023-03-19T03:25:28.650Z,11
2023-03-19T03:26:35.662Z,10
2023-03-19T03:27:42.508Z,10
2023-03-19T03:28:49.415Z,11
2023-03-19T03:29:56.183Z,11
2023-03-19T03:31:02.956Z,10
2023-03-19T03:32:09.815Z,10
2023-03-19T03:33:16.759Z,10
2023-03-19T03:34:23.631Z,10
2023-03-19T03:35:30.639Z,10
2023-03-19T03:36:37.459Z,11
2023-03-19T03:37:44.423Z,10
2023-03-19T03:38:54.030Z,10
2023-03-19T03:40:00.920Z,11
2023-03-19T03:41:08.024Z,10
2023-03-19T03:42:14.841Z,11
2023-03-19T03:43:21.673Z,10
2023-03-19T03:44:28.551Z,11
2023-03-19T03:45:35.467Z,10
2023-03-19T03:46:42.200Z,11
2023-03-19T03:47:49.051Z,11
2023-03-19T03:48:55.985Z,10
2023-03-19T03:50:02.783Z,11
2023-03-19T03:51:09.876Z,11
2023-03-19T03:52:16.633Z,11
2023-03-19T03:53:23.461Z,10
2023-03-19T03:54:30.275Z,11
2023-03-19T03:55:37.075Z,10
2023-03-19T03:56:43.900Z,11
2023-03-19T03:57:52.117Z,10
2023-03-19T03:58:58.996Z,11
2023-03-19T04:00:05.939Z,10
2023-03-19T04:01:13.304Z,10
2023-03-19T04:02:20.110Z,10
2023-03-19T04:03:26.975Z,11
2023-03-19T04:04:33.732Z,10
2023-03-19T04:05:40.589Z,10
2023-03-19T04:06:47.389Z,11
2023-03-19T04:07:54.182Z,10
2023-03-19T04:09:01.078Z,10
2023-03-19T04:10:07.960Z,11
2023-03-19T04:11:14.853Z,11
2023-03-19T04:12:21.767Z,11
2023-03-19T04:13:28.592Z,11
2023-03-19T04:14:35.433Z,11
2023-03-19T04:15:42.311Z,13
2023-03-19T04:16:49.378Z,11
2023-03-19T04:17:56.185Z,11
2023-03-19T04:19:03.086Z,12
2023-03-19T04:20:10.030Z,11
2023-03-19T04:21:16.877Z,12
2023-03-19T04:22:23.749Z,11
2023-03-19T04:23:30.591Z,11
2023-03-19T04:24:37.506Z,12
2023-03-19T04:25:44.466Z,11
2023-03-19T04:26:51.384Z,11
2023-03-19T04:27:58.233Z,12
2023-03-19T04:29:05.049Z,12
2023-03-19T04:30:11.875Z,12
2023-03-19T04:31:18.775Z,12
2023-03-19T04:32:25.553Z,11
2023-03-19T04:33:32.393Z,12
2023-03-19T04:34:39.254Z,12
2023-03-19T04:35:46.203Z,12
2023-03-19T04:36:53.012Z,12
2023-03-19T04:37:59.963Z,12
2023-03-19T04:39:06.906Z,12
2023-03-19T04:40:13.669Z,11
2023-03-19T04:41:20.625Z,12
2023-03-19T04:42:27.462Z,12
2023-03-19T04:43:34.328Z,11
2023-03-19T04:44:41.163Z,11
2023-03-19T04:45:47.921Z,11
2023-03-19T04:46:54.802Z,11
2023-03-19T04:48:01.673Z,11
2023-03-19T04:49:08.708Z,11
2023-03-19T04:50:15.620Z,10
2023-03-19T04:51:22.387Z,11
2023-03-19T04:52:29.245Z,11
2023-03-19T04:53:36.138Z,11
2023-03-19T04:54:42.919Z,11
2023-03-19T04:55:49.691Z,11
2023-03-19T04:56:56.561Z,10
2023-03-19T04:58:03.475Z,11
2023-03-19T04:59:10.294Z,11
2023-03-19T05:00:17.145Z,10
2023-03-19T05:01:24.340Z,11
2023-03-19T05:02:31.053Z,11
2023-03-19T05:03:37.874Z,11
2023-03-19T05:04:44.740Z,10
2023-03-19T05:05:51.531Z,11
2023-03-19T05:06:58.397Z,11
2023-03-19T05:08:05.222Z,12
2023-03-19T05:09:12.012Z,12
2023-03-19T05:10:18.870Z,12
2023-03-19T05:11:25.767Z,11
2023-03-19T05:12:32.541Z,10
2023-03-19T05:13:39.343Z,12
2023-03-19T05:14:46.126Z,12
2023-03-19T05:15:52.974Z,12
2023-03-19T05:16:59.820Z,12
2023-03-19T05:18:06.682Z,12
2023-03-19T05:19:13.728Z,13
2023-03-19T05:20:20.623Z,12
2023-03-19T05:21:27.446Z,12
2023-03-19T05:22:34.351Z,12
2023-03-19T05:23:41.329Z,11
2023-03-19T05:24:48.162Z,12
2023-03-19T05:25:54.995Z,12
2023-03-19T05:27:01.772Z,14
2023-03-19T05:28:08.757Z,20
2023-03-19T05:29:15.510Z,23
2023-03-19T05:30:22.404Z,30
2023-03-19T05:31:29.337Z,29
2023-03-19T05:32:36.106Z,28
2023-03-19T05:33:42.896Z,26
2023-03-19T05:34:49.880Z,25
2023-03-19T05:35:58.336Z,22
2023-03-19T05:37:03.473Z,18
2023-03-19T05:38:10.346Z,18
2023-03-19T05:39:17.097Z,17
2023-03-19T05:40:23.993Z,14
2023-03-19T05:41:30.787Z,15
2023-03-19T05:42:37.654Z,16
2023-03-19T05:43:44.497Z,14
2023-03-19T05:44:51.324Z,14
2023-03-19T05:45:58.180Z,14
2023-03-19T05:47:04.992Z,15
2023-03-19T05:48:13.168Z,14
2023-03-19T05:49:19.995Z,13
2023-03-19T05:50:26.805Z,14
2023-03-19T05:51:33.610Z,15
2023-03-19T05:52:40.556Z,14
2023-03-19T05:53:47.388Z,14
2023-03-19T05:54:54.189Z,13
2023-03-19T05:56:01.011Z,15
2023-03-19T05:57:07.914Z,15
2023-03-19T05:58:14.806Z,15
2023-03-19T05:59:21.646Z,15
2023-03-19T06:00:28.522Z,15
2023-03-19T06:01:35.413Z,15
2023-03-19T06:02:42.260Z,15
2023-03-19T06:03:49.175Z,16
2023-03-19T06:04:56.004Z,16
2023-03-19T06:06:02.808Z,16
2023-03-19T06:07:09.716Z,15
2023-03-19T06:08:16.547Z,15
2023-03-19T06:09:23.509Z,13
2023-03-19T06:10:30.556Z,14
2023-03-19T06:11:37.464Z,14
2023-03-19T06:12:44.269Z,14
2023-03-19T06:13:51.109Z,14
2023-03-19T06:14:57.894Z,14
2023-03-19T06:16:04.887Z,14
2023-03-19T06:17:11.679Z,14
2023-03-19T06:18:18.487Z,14
2023-03-19T06:19:25.349Z,13
2023-03-19T06:20:32.621Z,15
2023-03-19T06:21:39.064Z,14
2023-03-19T06:22:45.851Z,15
2023-03-19T06:23:52.708Z,15
2023-03-19T06:24:59.565Z,17
2023-03-19T06:26:06.628Z,17
2023-03-19T06:27:13.614Z,15
2023-03-19T06:28:20.597Z,15
2023-03-19T06:29:27.388Z,14
2023-03-19T06:30:34.426Z,14
2023-03-19T06:31:41.075Z,13
2023-03-19T06:32:48.014Z,13
2023-03-19T06:33:58.554Z,12
2023-03-19T06:35:05.578Z,13
2023-03-19T06:36:12.599Z,12
2023-03-19T06:37:19.435Z,12
2023-03-19T06:38:26.229Z,13
2023-03-19T06:39:33.102Z,13
2023-03-19T06:40:40.056Z,12
2023-03-19T06:41:46.992Z,12
2023-03-19T06:42:53.878Z,12
2023-03-19T06:44:00.693Z,12
2023-03-19T06:45:07.533Z,11
2023-03-19T06:46:14.751Z,13
2023-03-19T06:47:21.433Z,13
2023-03-19T06:48:28.504Z,13
2023-03-19T06:49:35.342Z,12
2023-03-19T06:50:42.160Z,12
2023-03-19T06:51:49.085Z,12
2023-03-19T06:52:55.987Z,13
2023-03-19T06:54:02.828Z,14
2023-03-19T06:55:09.665Z,14
2023-03-19T06:56:16.491Z,15
2023-03-19T06:57:23.453Z,15
2023-03-19T06:58:30.327Z,16
2023-03-19T06:59:37.182Z,15
2023-03-19T07:00:44.088Z,16
2023-03-19T07:01:50.742Z,14
2023-03-19T07:02:57.573Z,16
2023-03-19T07:04:04.469Z,16
2023-03-19T07:05:11.221Z,13
2023-03-19T07:06:18.109Z,14
2023-03-19T07:07:24.948Z,14
2023-03-19T07:08:31.780Z,14
2023-03-19T07:09:38.705Z,14
2023-03-19T07:10:45.636Z,12
2023-03-19T07:11:52.453Z,11
2023-03-19T07:12:59.301Z,11
2023-03-19T07:14:06.111Z,11
2023-03-19T07:15:13.010Z,12
2023-03-19T07:16:19.891Z,11
2023-03-19T07:17:26.663Z,11
2023-03-19T07:18:33.464Z,12
2023-03-19T07:19:40.303Z,12
2023-03-19T07:20:47.116Z,11
2023-03-19T07:21:53.948Z,10
2023-03-19T07:23:00.715Z,11
2023-03-19T07:24:07.540Z,10
2023-03-19T07:25:14.405Z,11
2023-03-19T07:26:22.036Z,10
2023-03-19T07:27:28.949Z,10
2023-03-19T07:28:35.984Z,10
2023-03-19T07:29:42.741Z,9
2023-03-19T07:30:52.312Z,9
2023-03-19T07:31:59.375Z,9
2023-03-19T07:33:10.947Z,9
2023-03-19T07:34:21.092Z,8
2023-03-19T07:35:28.052Z,9
2023-03-19T07:36:34.888Z,9
2023-03-19T07:37:41.954Z,10
2023-03-19T07:38:48.887Z,9
2023-03-19T07:39:57.551Z,10
2023-03-19T07:41:05.290Z,10
2023-03-19T07:42:12.198Z,10
2023-03-19T07:43:19.122Z,9
2023-03-19T07:44:25.995Z,9
2023-03-19T07:45:32.861Z,8
2023-03-19T07:46:39.725Z,8
2023-03-19T07:47:48.551Z,9
2023-03-19T07:48:53.465Z,8
2023-03-19T07:50:00.282Z,8
2023-03-19T07:51:07.289Z,8
2023-03-19T07:52:14.198Z,8
2023-03-19T07:53:20.964Z,9
2023-03-19T07:54:27.798Z,8
2023-03-19T07:55:36.636Z,9
2023-03-19T07:56:41.586Z,9
2023-03-19T07:57:48.389Z,9
2023-03-19T07:58:55.204Z,9
2023-03-19T08:00:02.047Z,9
2023-03-19T08:01:09.108Z,9
2023-03-19T08:02:16.100Z,9
2023-03-19T08:03:22.847Z,9
2023-03-19T08:04:29.616Z,8
2023-03-19T08:05:36.418Z,9
2023-03-19T08:06:43.189Z,9
2023-03-19T08:07:49.908Z,9
2023-03-19T08:08:56.755Z,9
2023-03-19T08:10:03.621Z,9
2023-03-19T08:11:10.560Z,9
2023-03-19T08:12:17.376Z,9
2023-03-19T08:13:24.241Z,9
2023-03-19T08:14:31.159Z,9
2023-03-19T08:15:38.014Z,8
2023-03-19T08:16:44.828Z,8
2023-03-19T08:17:51.592Z,8
2023-03-19T08:19:03.520Z,9
2023-03-19T08:20:10.356Z,9
2023-03-19T08:21:17.215Z,9
2023-03-19T08:22:24.119Z,9
2023-03-19T08:23:31.463Z,9
2023-03-19T08:24:38.382Z,8
2023-03-19T08:25:45.271Z,8
2023-03-19T08:26:52.081Z,9
2023-03-19T08:27:59.012Z,10
2023-03-19T08:29:05.960Z,8
2023-03-19T08:30:12.739Z,8
2023-03-19T08:31:19.726Z,9
2023-03-19T08:32:26.492Z,8
2023-03-19T08:33:33.340Z,8
2023-03-19T08:34:40.192Z,9
2023-03-19T08:35:47.056Z,9
2023-03-19T08:36:53.840Z,9
2023-03-19T08:38:00.650Z,8
2023-03-19T08:39:07.455Z,9
2023-03-19T08:40:14.252Z,8
2023-03-19T08:41:21.134Z,9
2023-03-19T08:42:27.952Z,8
2023-03-19T08:43:34.737Z,9
2023-03-19T08:44:41.640Z,9
2023-03-19T08:45:48.479Z,9
2023-03-19T08:46:55.294Z,9
2023-03-19T08:48:02.249Z,8
2023-03-19T08:49:09.069Z,9
2023-03-19T08:50:15.870Z,7
2023-03-19T08:51:22.818Z,8
2023-03-19T08:52:29.636Z,8
2023-03-19T08:53:36.395Z,8
2023-03-19T08:54:43.221Z,8
2023-03-19T08:55:50.159Z,8
2023-03-19T08:56:57.078Z,9
2023-03-19T08:58:04.003Z,8
2023-03-19T08:59:10.991Z,7
2023-03-19T09:00:17.749Z,7
2023-03-19T09:01:24.810Z,7
2023-03-19T09:02:31.570Z,7
2023-03-19T09:03:38.406Z,7
2023-03-19T09:04:45.381Z,7
2023-03-19T09:05:52.244Z,8
2023-03-19T09:06:59.027Z,7
2023-03-19T09:08:05.915Z,7
2023-03-19T09:09:12.811Z,8
2023-03-19T09:10:19.653Z,7
2023-03-19T09:11:26.574Z,7
2023-03-19T09:12:33.334Z,8
2023-03-19T09:13:40.262Z,7
2023-03-19T09:14:47.090Z,7
2023-03-19T09:15:54.123Z,7
2023-03-19T09:17:01.067Z,8
2023-03-19T09:18:07.956Z,8
2023-03-19T09:19:14.878Z,8
2023-03-19T09:20:21.723Z,7
2023-03-19T09:21:28.524Z,8
2023-03-19T09:22:35.359Z,7
2023-03-19T09:23:42.130Z,7
2023-03-19T09:24:49.016Z,8
2023-03-19T09:25:55.950Z,7
2023-03-19T09:27:02.746Z,7
2023-03-19T09:28:09.593Z,7
2023-03-19T09:29:16.359Z,7
2023-03-19T09:30:23.223Z,7
2023-03-19T09:31:30.166Z,7
2023-03-19T09:32:36.879Z,6
2023-03-19T09:33:43.775Z,6
2023-03-19T09:34:50.561Z,7
2023-03-19T09:35:57.341Z,7
2023-03-19T09:37:04.295Z,7
2023-03-19T09:38:11.195Z,7
2023-03-19T09:39:18.006Z,7
2023-03-19T09:40:24.799Z,6
2023-03-19T09:41:36.652Z,7
2023-03-19T09:42:51.396Z,7
2023-03-19T09:44:01.550Z,7
2023-03-19T09:45:13.523Z,7
2023-03-19T09:46:22.585Z,7
2023-03-19T09:47:27.286Z,6
2023-03-19T09:48:37.068Z,7
2023-03-19T09:49:43.942Z,7
2023-03-19T09:50:50.751Z,8
2023-03-19T09:51:57.583Z,7
2023-03-19T09:53:14.540Z,8
2023-03-19T09:54:21.372Z,7
2023-03-19T09:55:36.060Z,7
2023-03-19T09:56:50.504Z,7
2023-03-19T09:57:57.464Z,7
2023-03-19T09:59:04.359Z,7
2023-03-19T10:00:11.140Z,7
2023-03-19T10:01:21.015Z,7
2023-03-19T10:02:27.864Z,7
2023-03-19T10:03:34.778Z,7
2023-03-19T10:04:46.641Z,7
2023-03-19T10:05:58.488Z,7
2023-03-19T10:07:12.817Z,7
2023-03-19T10:08:25.369Z,7
2023-03-19T10:09:37.230Z,7
2023-03-19T10:10:49.138Z,8
2023-03-19T10:12:03.900Z,7
2023-03-19T10:13:18.377Z,7
2023-03-19T10:14:30.308Z,7
2023-03-19T10:15:47.336Z,8
2023-03-19T10:16:54.204Z,7
2023-03-19T10:18:01.124Z,7
2023-03-19T10:19:18.076Z,7
2023-03-19T10:20:25.126Z,7
2023-03-19T10:21:32.617Z,7
2023-03-19T10:22:47.471Z,7
2023-03-19T10:23:56.608Z,7
2023-03-19T10:25:06.779Z,8
2023-03-19T10:26:13.673Z,7
2023-03-19T10:27:20.587Z,8
2023-03-19T10:28:27.405Z,8
2023-03-19T10:29:34.324Z,7
2023-03-19T10:30:41.220Z,7
2023-03-19T10:31:48.233Z,8
2023-03-19T10:33:00.285Z,8
2023-03-19T10:34:12.095Z,9
2023-03-19T10:35:26.737Z,8
2023-03-19T10:36:38.847Z,9
2023-03-19T10:37:45.601Z,8
2023-03-19T10:38:52.460Z,8
2023-03-19T10:40:00.265Z,8
2023-03-19T10:41:07.060Z,8
2023-03-19T10:42:21.960Z,7
2023-03-19T10:43:38.905Z,8
2023-03-19T10:44:45.720Z,7
2023-03-19T10:46:00.204Z,7
2023-03-19T10:47:07.117Z,7
2023-03-19T10:48:14.085Z,7
2023-03-19T10:49:20.956Z,7
2023-03-19T10:50:27.894Z,8
2023-03-19T10:51:37.808Z,8
2023-03-19T10:52:51.486Z,9
2023-03-19T10:54:02.038Z,8
2023-03-19T10:55:11.013Z,9
2023-03-19T10:56:20.884Z,8
2023-03-19T10:57:27.678Z,8
2023-03-19T10:58:37.433Z,8
2023-03-19T10:59:44.236Z,8
2023-03-19T11:00:51.170Z,7
2023-03-19T11:02:00.559Z,8
2023-03-19T11:03:17.524Z,8
2023-03-19T11:04:32.263Z,7
2023-03-19T11:05:39.070Z,7
2023-03-19T11:06:45.953Z,8
2023-03-19T11:07:52.910Z,8
2023-03-19T11:09:01.596Z,8
2023-03-19T11:10:11.256Z,8
2023-03-19T11:11:18.004Z,8
2023-03-19T11:12:29.928Z,9
2023-03-19T11:13:39.637Z,8
2023-03-19T11:14:46.492Z,9
2023-03-19T11:15:53.387Z,8
2023-03-19T11:17:02.245Z,8
2023-03-19T11:18:09.716Z,8
2023-03-19T11:19:24.619Z,9
2023-03-19T11:20:31.440Z,9
2023-03-19T11:21:38.215Z,8
2023-03-19T11:22:45.081Z,8
2023-03-19T11:23:51.866Z,8
2023-03-19T11:25:03.842Z,8
2023-03-19T11:26:20.735Z,8
2023-03-19T11:27:27.639Z,8
2023-03-19T11:28:34.599Z,8
2023-03-19T11:29:41.525Z,7
2023-03-19T11:30:48.391Z,7
2023-03-19T11:32:15.118Z,8
2023-03-19T11:33:20.020Z,8
2023-03-19T11:34:34.792Z,8
2023-03-19T11:35:46.768Z,8
2023-03-19T11:37:03.700Z,9
2023-03-19T11:38:18.647Z,8
2023-03-19T11:39:28.380Z,8
2023-03-19T11:40:40.255Z,8
2023-03-19T11:41:50.412Z,8
2023-03-19T11:43:07.462Z,8
2023-03-19T11:44:19.376Z,8
2023-03-19T11:45:38.557Z,8
2023-03-19T11:46:51.217Z,9
2023-03-19T11:47:58.023Z,8
2023-03-19T11:49:14.945Z,8
2023-03-19T11:50:27.644Z,9
2023-03-19T11:51:44.719Z,8
2023-03-19T11:53:01.997Z,8
2023-03-19T11:54:11.374Z,8
2023-03-19T11:55:28.318Z,9
2023-03-19T11:56:40.252Z,8
2023-03-19T11:57:47.090Z,8
2023-03-19T11:59:03.980Z,8
2023-03-19T12:00:20.983Z,8
2023-03-19T12:01:32.871Z,9
2023-03-19T12:02:42.559Z,9
2023-03-19T12:03:52.133Z,9
2023-03-19T12:05:09.055Z,9
2023-03-19T12:06:25.999Z,8
2023-03-19T12:07:43.023Z,9
2023-03-19T12:08:54.998Z,8
2023-03-19T12:10:09.419Z,8
2023-03-19T12:11:21.309Z,8
2023-03-19T12:12:36.048Z,8
2023-03-19T12:13:50.871Z,9
2023-03-19T12:15:05.686Z,8
2023-03-19T12:16:20.299Z,8
2023-03-19T12:17:37.235Z,9
2023-03-19T12:18:46.928Z,8
2023-03-19T12:19:56.353Z,8
2023-03-19T12:21:11.073Z,9
2023-03-19T12:22:20.552Z,8
2023-03-19T12:23:36.040Z,8
2023-03-19T12:24:47.182Z,9
2023-03-19T12:25:59.240Z,8
2023-03-19T12:27:13.592Z,9
2023-03-19T12:28:25.682Z,8
2023-03-19T12:29:38.786Z,9
2023-03-19T12:30:50.713Z,8
2023-03-19T12:32:00.573Z,9
2023-03-19T12:33:10.029Z,9
2023-03-19T12:34:19.465Z,8
2023-03-19T12:35:31.617Z,9
2023-03-19T12:36:38.421Z,8
2023-03-19T12:37:50.503Z,9
2023-03-19T12:39:07.385Z,9
2023-03-19T12:40:17.367Z,8
2023-03-19T12:41:34.366Z,8
2023-03-19T12:42:41.231Z,8
2023-03-19T12:43:48.119Z,8
2023-03-19T12:44:59.980Z,9
2023-03-19T12:46:07.296Z,8
2023-03-19T12:47:19.391Z,8
2023-03-19T12:48:29.142Z,8
2023-03-19T12:49:35.963Z,8
2023-03-19T12:50:45.617Z,8
2023-03-19T12:51:52.495Z,8
2023-03-19T12:53:09.479Z,7
2023-03-19T12:54:21.349Z,7
2023-03-19T12:55:28.339Z,7
2023-03-19T12:56:42.858Z,7
2023-03-19T12:57:55.798Z,7
2023-03-19T12:59:07.784Z,7
2023-03-19T13:00:15.591Z,8
2023-03-19T13:01:26.034Z,10
2023-03-19T13:02:33.139Z,15
2023-03-19T13:03:49.943Z,16
2023-03-19T13:05:04.690Z,15
2023-03-19T13:06:21.580Z,11
2023-03-19T13:07:31.423Z,7
2023-03-19T13:08:46.354Z,6
2023-03-19T13:10:03.421Z,6
2023-03-19T13:11:10.361Z,6
2023-03-19T13:12:17.179Z,6
2023-03-19T13:13:26.612Z,6
2023-03-19T13:14:43.580Z,6
2023-03-19T13:15:55.440Z,6
2023-03-19T13:17:02.248Z,7
2023-03-19T13:18:14.150Z,7
2023-03-19T13:19:26.069Z,8
2023-03-19T13:20:43.215Z,7
2023-03-19T13:21:57.759Z,6
2023-03-19T13:23:04.539Z,8
2023-03-19T13:24:11.410Z,8
2023-03-19T13:25:28.350Z,8
2023-03-19T13:26:37.925Z,6
2023-03-19T13:27:44.718Z,9
2023-03-19T13:28:56.526Z,10
2023-03-19T13:30:09.482Z,10
2023-03-19T13:31:16.240Z,6
2023-03-19T13:32:23.013Z,6
2023-03-19T13:33:40.044Z,6
2023-03-19T13:34:46.957Z,6
2023-03-19T13:35:53.973Z,6
2023-03-19T13:37:00.774Z,6
2023-03-19T13:38:07.816Z,6
2023-03-19T13:39:19.043Z,7
2023-03-19T13:40:28.973Z,6
2023-03-19T13:41:40.863Z,7
2023-03-19T13:42:47.690Z,7
2023-03-19T13:43:54.655Z,8
2023-03-19T13:45:03.655Z,7
2023-03-19T13:46:13.469Z,6
2023-03-19T13:47:20.214Z,6
2023-03-19T13:48:29.962Z,6
2023-03-19T13:49:39.787Z,6
2023-03-19T13:50:46.643Z,7
2023-03-19T13:52:01.406Z,6
2023-03-19T13:53:13.301Z,6
2023-03-19T13:54:25.246Z,6
2023-03-19T13:55:34.808Z,6
2023-03-19T13:56:51.848Z,7
2023-03-19T13:58:01.911Z,6
2023-03-19T13:59:16.560Z,5
2023-03-19T14:00:26.022Z,5
2023-03-19T14:01:42.936Z,5
2023-03-19T14:02:51.855Z,5
2023-03-19T14:03:58.935Z,5
2023-03-19T14:05:08.890Z,5
2023-03-19T14:06:21.086Z,5
2023-03-19T14:07:34.154Z,5
2023-03-19T14:08:44.438Z,5
2023-03-19T14:09:52.547Z,5
2023-03-19T14:11:02.534Z,6
2023-03-19T14:12:09.555Z,6
2023-03-19T14:13:21.523Z,6
2023-03-19T14:14:28.462Z,6
2023-03-19T14:15:38.464Z,6
2023-03-19T14:16:45.441Z,5
2023-03-19T14:17:52.214Z,6
2023-03-19T14:19:04.898Z,6
2023-03-19T14:20:15.204Z,6
2023-03-19T14:21:23.225Z,7
2023-03-19T14:22:35.230Z,7
2023-03-19T14:23:52.760Z,8
2023-03-19T14:24:59.015Z,8
2023-03-19T14:26:15.951Z,6
2023-03-19T14:27:22.758Z,7
2023-03-19T14:28:32.049Z,7
2023-03-19T14:29:43.961Z,7
2023-03-19T14:30:50.776Z,6
2023-03-19T14:31:57.660Z,6
2023-03-19T14:33:07.573Z,6
2023-03-19T14:34:19.642Z,6
2023-03-19T14:35:36.594Z,7
2023-03-19T14:36:43.410Z,9
2023-03-19T14:38:00.323Z,16
2023-03-19T14:39:07.131Z,15
2023-03-19T14:40:21.490Z,17
2023-03-19T14:41:33.303Z,12
2023-03-19T14:42:40.097Z,10
2023-03-19T14:43:49.811Z,21
2023-03-19T14:45:04.471Z,20
2023-03-19T14:46:11.289Z,14
2023-03-19T14:47:28.309Z,9
2023-03-19T14:48:37.660Z,10
2023-03-19T14:49:54.622Z,11
2023-03-19T14:51:11.545Z,15
2023-03-19T14:52:28.507Z,12
2023-03-19T14:53:35.402Z,9
2023-03-19T14:54:42.179Z,20
2023-03-19T14:55:51.610Z,21
2023-03-19T14:56:58.410Z,19
2023-03-19T14:58:10.217Z,10
2023-03-19T14:59:17.085Z,8
2023-03-19T15:00:23.889Z,7
2023-03-19T15:01:30.968Z,8
2023-03-19T15:02:37.701Z,10
2023-03-19T15:03:44.536Z,15
2023-03-19T15:04:51.350Z,11
2023-03-19T15:05:58.121Z,11
2023-03-19T15:07:04.981Z,12
2023-03-19T15:08:11.833Z,10
2023-03-19T15:09:18.630Z,12
2023-03-19T15:10:33.342Z,11
2023-03-19T15:11:48.061Z,11
2023-03-19T15:12:57.610Z,9
2023-03-19T15:14:09.454Z,7
2023-03-19T15:15:24.234Z,7
2023-03-19T15:16:38.958Z,7
2023-03-19T15:18:02.844Z,8
2023-03-19T15:19:05.538Z,6
2023-03-19T15:20:12.294Z,8
2023-03-19T15:21:21.730Z,7
2023-03-19T15:22:28.631Z,7
2023-03-19T15:23:35.416Z,7
2023-03-19T15:24:42.255Z,6
2023-03-19T15:25:49.042Z,7
2023-03-19T15:27:01.106Z,6
2023-03-19T15:28:18.590Z,6
2023-03-19T15:29:25.323Z,6
2023-03-19T15:30:50.252Z,6
2023-03-19T15:31:51.447Z,7
2023-03-19T15:33:03.732Z,6
2023-03-19T15:33:58.219Z,7
2023-03-19T15:35:05.088Z,6
2023-03-19T15:36:11.764Z,6
2023-03-19T15:37:28.774Z,6
2023-03-19T15:38:35.595Z,6
2023-03-19T15:39:42.463Z,6
2023-03-19T15:40:49.327Z,6
2023-03-19T15:41:56.200Z,7
2023-03-19T15:43:02.992Z,7
2023-03-19T15:44:09.940Z,7
2023-03-19T15:45:21.777Z,6
2023-03-19T15:46:28.695Z,7
2023-03-19T15:47:35.541Z,7
2023-03-19T15:48:42.323Z,7
2023-03-19T15:49:55.185Z,7
2023-03-19T15:51:02.011Z,7
2023-03-19T15:52:09.061Z,7
2023-03-19T15:53:15.864Z,7
2023-03-19T15:54:22.616Z,7
2023-03-19T15:55:29.517Z,7
2023-03-19T15:56:36.298Z,6
2023-03-19T15:57:43.259Z,7
2023-03-19T15:58:52.655Z,6
2023-03-19T15:59:56.865Z,8
2023-03-19T16:01:03.783Z,7
2023-03-19T16:02:10.625Z,8
2023-03-19T16:03:20.170Z,9
2023-03-19T16:04:30.032Z,8
2023-03-19T16:05:36.782Z,9
2023-03-19T16:06:43.636Z,9
2023-03-19T16:07:50.472Z,9
2023-03-19T16:09:03.088Z,10
2023-03-19T16:10:17.929Z,10
2023-03-19T16:11:27.900Z,11
2023-03-19T16:12:37.623Z,11
2023-03-19T16:13:44.437Z,10
2023-03-19T16:14:56.275Z,10
2023-03-19T16:16:03.123Z,9
2023-03-19T16:17:13.103Z,8
2023-03-19T16:18:19.867Z,8
2023-03-19T16:19:26.640Z,7
2023-03-19T16:20:33.705Z,7
2023-03-19T16:21:43.360Z,6
2023-03-19T16:22:50.273Z,7
2023-03-19T16:23:57.141Z,7
2023-03-19T16:25:03.984Z,7
2023-03-19T16:26:10.828Z,7
2023-03-19T16:27:22.664Z,7
2023-03-19T16:28:34.941Z,7
2023-03-19T16:29:41.747Z,7
2023-03-19T16:30:48.700Z,7
2023-03-19T16:31:55.438Z,7
2023-03-19T16:33:05.422Z,7